sensor_id;sensor_type;location;lat;lon;timestamp;temperature;humidity
23597;DHT22;40226;50.874;4.394;2023-11-22T00:01:16;6.80;99.90
23597;DHT22;40226;50.874;4.394;2023-11-22T00:03:42;6.90;99.90
23597;DHT22;40226;50.874;4.394;2023-11-22T00:06:07;7.00;99.90
23597;DHT22;40226;50.874;4.394;2023-11-22T00:08:33;6.80;99.90
23597;DHT22;40226;50.874;4.394;2023-11-22T00:10:59;6.70;99.90
23597;DHT22;40226;50.874;4.394;2023-11-22T00:13:25;6.70;99.90
23597;DHT22;40226;50.874;4.394;2023-11-22T00:15:51;6.70;99.90
23597;DHT22;40226;50.874;4.394;2023-11-22T00:18:16;6.70;99.90
23597;DHT22;40226;50.874;4.394;2023-11-22T00:20:42;6.70;99.90
23597;DHT22;40226;50.874;4.394;2023-11-22T00:23:08;6.80;99.90
23597;DHT22;40226;50.874;4.394;2023-11-22T00:25:33;6.90;99.90
23597;DHT22;40226;50.874;4.394;2023-11-22T00:27:59;6.80;99.90
23597;DHT22;40226;50.874;4.394;2023-11-22T00:30:24;6.90;99.90
23597;DHT22;40226;50.874;4.394;2023-11-22T00:32:50;6.80;99.90
23597;DHT22;40226;50.874;4.394;2023-11-22T00:35:16;6.80;99.90
23597;DHT22;40226;50.874;4.394;2023-11-22T00:37:42;6.80;99.90
23597;DHT22;40226;50.874;4.394;2023-11-22T00:40:08;6.80;99.90
23597;DHT22;40226;50.874;4.394;2023-11-22T00:42:37;6.70;99.90
23597;DHT22;40226;50.874;4.394;2023-11-22T00:45:05;6.60;99.90
23597;DHT22;40226;50.874;4.394;2023-11-22T00:47:32;6.60;99.90
23597;DHT22;40226;50.874;4.394;2023-11-22T00:49:58;6.50;99.90
23597;DHT22;40226;50.874;4.394;2023-11-22T00:52:24;6.60;99.90
23597;DHT22;40226;50.874;4.394;2023-11-22T00:54:49;6.60;99.90
23597;DHT22;40226;50.874;4.394;2023-11-22T00:57:15;6.60;99.90
23597;DHT22;40226;50.874;4.394;2023-11-22T00:59:41;6.60;99.90
23597;DHT22;40226;50.874;4.394;2023-11-22T01:02:06;6.70;99.90
23597;DHT22;40226;50.874;4.394;2023-11-22T01:04:34;6.70;99.90
23597;DHT22;40226;50.874;4.394;2023-11-22T01:07:03;6.60;99.90
23597;DHT22;40226;50.874;4.394;2023-11-22T01:09:32;6.70;99.90
23597;DHT22;40226;50.874;4.394;2023-11-22T01:11:58;6.50;99.90
23597;DHT22;40226;50.874;4.394;2023-11-22T01:14:25;6.60;99.90
23597;DHT22;40226;50.874;4.394;2023-11-22T01:16:52;6.60;99.90
23597;DHT22;40226;50.874;4.394;2023-11-22T01:19:17;6.50;99.90
23597;DHT22;40226;50.874;4.394;2023-11-22T01:21:43;6.80;99.90
23597;DHT22;40226;50.874;4.394;2023-11-22T01:24:09;6.60;99.90
23597;DHT22;40226;50.874;4.394;2023-11-22T01:26:35;6.50;99.90
23597;DHT22;40226;50.874;4.394;2023-11-22T01:29:01;6.40;99.90
23597;DHT22;40226;50.874;4.394;2023-11-22T01:31:28;6.40;99.90
23597;DHT22;40226;50.874;4.394;2023-11-22T01:33:54;6.20;99.90
23597;DHT22;40226;50.874;4.394;2023-11-22T01:36:20;6.20;99.90
23597;DHT22;40226;50.874;4.394;2023-11-22T01:38:45;6.10;99.90
23597;DHT22;40226;50.874;4.394;2023-11-22T01:41:14;6.10;99.90
23597;DHT22;40226;50.874;4.394;2023-11-22T01:43:40;6.20;99.90
23597;DHT22;40226;50.874;4.394;2023-11-22T01:46:08;6.30;99.90
23597;DHT22;40226;50.874;4.394;2023-11-22T01:48:36;6.30;99.90
23597;DHT22;40226;50.874;4.394;2023-11-22T01:51:03;6.20;99.90
23597;DHT22;40226;50.874;4.394;2023-11-22T01:53:29;6.10;99.90
23597;DHT22;40226;50.874;4.394;2023-11-22T01:55:56;6.10;99.90
23597;DHT22;40226;50.874;4.394;2023-11-22T01:58:22;6.10;99.90
23597;DHT22;40226;50.874;4.394;2023-11-22T02:00:50;6.20;99.90
23597;DHT22;40226;50.874;4.394;2023-11-22T02:03:16;6.30;99.90
23597;DHT22;40226;50.874;4.394;2023-11-22T02:05:42;6.30;99.90
23597;DHT22;40226;50.874;4.394;2023-11-22T02:08:09;6.20;99.90
23597;DHT22;40226;50.874;4.394;2023-11-22T02:10:35;6.30;99.90
23597;DHT22;40226;50.874;4.394;2023-11-22T02:13:03;6.30;99.90
23597;DHT22;40226;50.874;4.394;2023-11-22T02:15:30;6.40;99.90
23597;DHT22;40226;50.874;4.394;2023-11-22T02:17:57;6.50;99.90
23597;DHT22;40226;50.874;4.394;2023-11-22T02:20:23;6.40;99.90
23597;DHT22;40226;50.874;4.394;2023-11-22T02:22:48;6.40;99.90
23597;DHT22;40226;50.874;4.394;2023-11-22T02:25:14;6.50;99.90
23597;DHT22;40226;50.874;4.394;2023-11-22T02:27:42;6.50;99.90
23597;DHT22;40226;50.874;4.394;2023-11-22T02:30:08;6.70;99.90
23597;DHT22;40226;50.874;4.394;2023-11-22T02:32:34;6.70;99.90
23597;DHT22;40226;50.874;4.394;2023-11-22T02:35:00;6.80;99.90
23597;DHT22;40226;50.874;4.394;2023-11-22T02:37:26;6.60;99.90
23597;DHT22;40226;50.874;4.394;2023-11-22T02:40:02;6.50;99.90
23597;DHT22;40226;50.874;4.394;2023-11-22T02:42:30;6.50;99.90
23597;DHT22;40226;50.874;4.394;2023-11-22T02:44:56;6.80;99.90
23597;DHT22;40226;50.874;4.394;2023-11-22T02:47:22;6.80;99.90
23597;DHT22;40226;50.874;4.394;2023-11-22T02:49:48;6.60;99.90
23597;DHT22;40226;50.874;4.394;2023-11-22T02:52:14;6.70;99.90
23597;DHT22;40226;50.874;4.394;2023-11-22T02:54:43;6.60;99.90
23597;DHT22;40226;50.874;4.394;2023-11-22T02:57:11;6.60;99.90
23597;DHT22;40226;50.874;4.394;2023-11-22T02:59:36;6.80;99.90
23597;DHT22;40226;50.874;4.394;2023-11-22T03:02:02;6.90;99.90
23597;DHT22;40226;50.874;4.394;2023-11-22T03:04:28;7.00;99.90
23597;DHT22;40226;50.874;4.394;2023-11-22T03:06:54;7.00;99.90
23597;DHT22;40226;50.874;4.394;2023-11-22T03:09:20;6.70;99.90
23597;DHT22;40226;50.874;4.394;2023-11-22T03:11:48;6.50;99.90
23597;DHT22;40226;50.874;4.394;2023-11-22T03:14:13;6.30;99.90
23597;DHT22;40226;50.874;4.394;2023-11-22T03:16:40;6.50;99.90
23597;DHT22;40226;50.874;4.394;2023-11-22T03:19:05;6.50;99.90
23597;DHT22;40226;50.874;4.394;2023-11-22T03:21:32;6.50;99.90
23597;DHT22;40226;50.874;4.394;2023-11-22T03:23:57;6.40;99.90
23597;DHT22;40226;50.874;4.394;2023-11-22T03:26:25;6.50;99.90
23597;DHT22;40226;50.874;4.394;2023-11-22T03:28:51;6.30;99.90
23597;DHT22;40226;50.874;4.394;2023-11-22T03:31:16;6.40;99.90
23597;DHT22;40226;50.874;4.394;2023-11-22T03:33:42;6.70;99.90
23597;DHT22;40226;50.874;4.394;2023-11-22T03:36:08;6.60;99.90
23597;DHT22;40226;50.874;4.394;2023-11-22T03:38:36;6.50;99.90
23597;DHT22;40226;50.874;4.394;2023-11-22T03:41:02;6.40;99.90
23597;DHT22;40226;50.874;4.394;2023-11-22T03:43:27;6.30;99.90
23597;DHT22;40226;50.874;4.394;2023-11-22T03:45:53;6.40;99.90
23597;DHT22;40226;50.874;4.394;2023-11-22T03:48:18;6.40;99.90
23597;DHT22;40226;50.874;4.394;2023-11-22T03:50:45;6.50;99.90
23597;DHT22;40226;50.874;4.394;2023-11-22T03:53:11;6.60;99.90
23597;DHT22;40226;50.874;4.394;2023-11-22T03:55:36;6.70;99.90
23597;DHT22;40226;50.874;4.394;2023-11-22T03:58:02;6.60;99.90
23597;DHT22;40226;50.874;4.394;2023-11-22T04:00:27;6.80;99.90
23597;DHT22;40226;50.874;4.394;2023-11-22T04:02:53;6.70;99.90
23597;DHT22;40226;50.874;4.394;2023-11-22T04:05:19;6.70;99.90
23597;DHT22;40226;50.874;4.394;2023-11-22T04:07:45;6.60;99.90
23597;DHT22;40226;50.874;4.394;2023-11-22T04:10:11;6.40;99.90
23597;DHT22;40226;50.874;4.394;2023-11-22T04:12:37;6.50;99.90
23597;DHT22;40226;50.874;4.394;2023-11-22T04:15:03;6.40;99.90
23597;DHT22;40226;50.874;4.394;2023-11-22T04:17:29;6.30;99.90
23597;DHT22;40226;50.874;4.394;2023-11-22T04:19:55;6.30;99.90
23597;DHT22;40226;50.874;4.394;2023-11-22T04:22:20;6.20;99.90
23597;DHT22;40226;50.874;4.394;2023-11-22T04:24:46;6.20;99.90
23597;DHT22;40226;50.874;4.394;2023-11-22T04:27:11;6.20;99.90
23597;DHT22;40226;50.874;4.394;2023-11-22T04:29:37;6.20;99.90
23597;DHT22;40226;50.874;4.394;2023-11-22T04:32:03;6.10;99.90
23597;DHT22;40226;50.874;4.394;2023-11-22T04:34:29;6.30;99.90
23597;DHT22;40226;50.874;4.394;2023-11-22T04:36:54;6.20;99.90
23597;DHT22;40226;50.874;4.394;2023-11-22T04:39:20;6.20;99.90
23597;DHT22;40226;50.874;4.394;2023-11-22T04:41:46;6.00;99.90
23597;DHT22;40226;50.874;4.394;2023-11-22T04:44:11;6.40;99.90
23597;DHT22;40226;50.874;4.394;2023-11-22T04:46:37;6.60;99.90
23597;DHT22;40226;50.874;4.394;2023-11-22T04:49:03;6.60;99.90
23597;DHT22;40226;50.874;4.394;2023-11-22T04:51:28;6.30;99.90
23597;DHT22;40226;50.874;4.394;2023-11-22T04:53:54;6.30;99.90
23597;DHT22;40226;50.874;4.394;2023-11-22T04:56:20;6.20;99.90
23597;DHT22;40226;50.874;4.394;2023-11-22T04:58:46;6.40;99.90
23597;DHT22;40226;50.874;4.394;2023-11-22T05:01:11;6.20;99.90
23597;DHT22;40226;50.874;4.394;2023-11-22T05:03:37;6.10;99.90
23597;DHT22;40226;50.874;4.394;2023-11-22T05:06:04;6.10;99.90
23597;DHT22;40226;50.874;4.394;2023-11-22T05:08:29;6.30;99.90
23597;DHT22;40226;50.874;4.394;2023-11-22T05:10:55;6.50;99.90
23597;DHT22;40226;50.874;4.394;2023-11-22T05:13:21;6.30;99.90
23597;DHT22;40226;50.874;4.394;2023-11-22T05:15:47;6.50;99.90
23597;DHT22;40226;50.874;4.394;2023-11-22T05:18:12;6.50;99.90
23597;DHT22;40226;50.874;4.394;2023-11-22T05:20:38;6.30;99.90
23597;DHT22;40226;50.874;4.394;2023-11-22T05:23:03;6.40;99.90
23597;DHT22;40226;50.874;4.394;2023-11-22T05:25:30;6.30;99.90
23597;DHT22;40226;50.874;4.394;2023-11-22T05:27:55;6.30;99.90
23597;DHT22;40226;50.874;4.394;2023-11-22T05:30:21;6.50;99.90
23597;DHT22;40226;50.874;4.394;2023-11-22T05:32:48;6.80;99.90
23597;DHT22;40226;50.874;4.394;2023-11-22T05:35:14;6.50;99.90
23597;DHT22;40226;50.874;4.394;2023-11-22T05:37:40;6.70;99.90
23597;DHT22;40226;50.874;4.394;2023-11-22T05:40:06;6.60;99.90
23597;DHT22;40226;50.874;4.394;2023-11-22T05:42:35;6.70;99.90
23597;DHT22;40226;50.874;4.394;2023-11-22T05:45:01;6.80;99.90
23597;DHT22;40226;50.874;4.394;2023-11-22T05:47:27;6.70;99.90
23597;DHT22;40226;50.874;4.394;2023-11-22T05:49:52;6.90;99.90
23597;DHT22;40226;50.874;4.394;2023-11-22T05:52:18;6.70;99.90
23597;DHT22;40226;50.874;4.394;2023-11-22T05:54:45;6.60;99.90
23597;DHT22;40226;50.874;4.394;2023-11-22T05:57:12;6.70;99.90
23597;DHT22;40226;50.874;4.394;2023-11-22T05:59:37;6.90;99.90
23597;DHT22;40226;50.874;4.394;2023-11-22T06:02:03;6.80;99.90
23597;DHT22;40226;50.874;4.394;2023-11-22T06:04:29;7.00;99.90
23597;DHT22;40226;50.874;4.394;2023-11-22T06:06:56;7.00;99.90
23597;DHT22;40226;50.874;4.394;2023-11-22T06:09:21;6.80;99.90
23597;DHT22;40226;50.874;4.394;2023-11-22T06:11:48;6.80;99.90
23597;DHT22;40226;50.874;4.394;2023-11-22T06:14:14;6.70;99.90
23597;DHT22;40226;50.874;4.394;2023-11-22T06:16:40;6.90;99.90
23597;DHT22;40226;50.874;4.394;2023-11-22T06:19:05;7.20;99.90
23597;DHT22;40226;50.874;4.394;2023-11-22T06:21:32;7.50;99.90
23597;DHT22;40226;50.874;4.394;2023-11-22T06:23:58;7.30;99.90
23597;DHT22;40226;50.874;4.394;2023-11-22T06:26:24;7.50;99.90
23597;DHT22;40226;50.874;4.394;2023-11-22T06:28:50;7.20;99.90
23597;DHT22;40226;50.874;4.394;2023-11-22T06:31:16;6.90;99.90
23597;DHT22;40226;50.874;4.394;2023-11-22T06:33:41;6.80;99.90
23597;DHT22;40226;50.874;4.394;2023-11-22T06:36:07;6.70;99.90
23597;DHT22;40226;50.874;4.394;2023-11-22T06:38:35;6.70;99.90
23597;DHT22;40226;50.874;4.394;2023-11-22T06:41:00;6.90;99.90
23597;DHT22;40226;50.874;4.394;2023-11-22T06:43:26;7.00;99.90
23597;DHT22;40226;50.874;4.394;2023-11-22T06:45:52;6.70;99.90
23597;DHT22;40226;50.874;4.394;2023-11-22T06:48:17;6.60;99.90
23597;DHT22;40226;50.874;4.394;2023-11-22T06:50:43;6.40;99.90
23597;DHT22;40226;50.874;4.394;2023-11-22T06:53:10;6.50;99.90
23597;DHT22;40226;50.874;4.394;2023-11-22T06:55:37;6.40;99.90
23597;DHT22;40226;50.874;4.394;2023-11-22T06:58:04;6.50;99.90
23597;DHT22;40226;50.874;4.394;2023-11-22T07:00:31;6.50;99.90
23597;DHT22;40226;50.874;4.394;2023-11-22T07:02:58;6.60;99.90
23597;DHT22;40226;50.874;4.394;2023-11-22T07:05:23;6.60;99.90
23597;DHT22;40226;50.874;4.394;2023-11-22T07:07:49;6.70;99.90
23597;DHT22;40226;50.874;4.394;2023-11-22T07:10:15;6.70;99.90
23597;DHT22;40226;50.874;4.394;2023-11-22T07:12:40;6.90;99.90
23597;DHT22;40226;50.874;4.394;2023-11-22T07:15:09;6.90;99.90
23597;DHT22;40226;50.874;4.394;2023-11-22T07:17:35;6.80;99.90
23597;DHT22;40226;50.874;4.394;2023-11-22T07:20:00;7.00;99.90
23597;DHT22;40226;50.874;4.394;2023-11-22T07:22:26;7.00;99.90
23597;DHT22;40226;50.874;4.394;2023-11-22T07:24:52;6.90;99.90
23597;DHT22;40226;50.874;4.394;2023-11-22T07:27:19;6.60;99.90
23597;DHT22;40226;50.874;4.394;2023-11-22T07:29:45;6.50;99.90
23597;DHT22;40226;50.874;4.394;2023-11-22T07:32:11;6.60;99.90
23597;DHT22;40226;50.874;4.394;2023-11-22T07:34:38;7.00;99.90
23597;DHT22;40226;50.874;4.394;2023-11-22T07:37:07;7.20;99.90
23597;DHT22;40226;50.874;4.394;2023-11-22T07:39:34;7.30;99.90
23597;DHT22;40226;50.874;4.394;2023-11-22T07:42:03;7.30;99.90
23597;DHT22;40226;50.874;4.394;2023-11-22T07:44:28;7.20;99.90
23597;DHT22;40226;50.874;4.394;2023-11-22T07:46:58;7.30;99.90
23597;DHT22;40226;50.874;4.394;2023-11-22T07:49:25;7.10;99.90
23597;DHT22;40226;50.874;4.394;2023-11-22T07:51:50;7.20;99.90
23597;DHT22;40226;50.874;4.394;2023-11-22T07:54:19;7.10;99.90
23597;DHT22;40226;50.874;4.394;2023-11-22T07:56:50;7.30;99.90
23597;DHT22;40226;50.874;4.394;2023-11-22T07:59:18;7.50;99.90
23597;DHT22;40226;50.874;4.394;2023-11-22T08:01:44;7.20;99.90
23597;DHT22;40226;50.874;4.394;2023-11-22T08:04:09;7.30;99.90
23597;DHT22;40226;50.874;4.394;2023-11-22T08:06:35;7.20;99.90
23597;DHT22;40226;50.874;4.394;2023-11-22T08:09:01;7.20;99.90
23597;DHT22;40226;50.874;4.394;2023-11-22T08:11:28;7.00;99.90
23597;DHT22;40226;50.874;4.394;2023-11-22T08:13:54;7.00;99.90
23597;DHT22;40226;50.874;4.394;2023-11-22T08:16:23;6.80;99.90
23597;DHT22;40226;50.874;4.394;2023-11-22T08:18:48;6.70;99.90
23597;DHT22;40226;50.874;4.394;2023-11-22T08:21:14;6.60;99.90
23597;DHT22;40226;50.874;4.394;2023-11-22T08:23:40;6.50;99.90
23597;DHT22;40226;50.874;4.394;2023-11-22T08:26:05;6.50;99.90
23597;DHT22;40226;50.874;4.394;2023-11-22T08:28:32;6.40;99.90
23597;DHT22;40226;50.874;4.394;2023-11-22T08:30:57;6.50;99.90
23597;DHT22;40226;50.874;4.394;2023-11-22T08:33:23;6.70;99.90
23597;DHT22;40226;50.874;4.394;2023-11-22T08:35:49;6.80;99.90
23597;DHT22;40226;50.874;4.394;2023-11-22T08:38:18;6.80;99.90
23597;DHT22;40226;50.874;4.394;2023-11-22T08:40:44;6.90;99.90
23597;DHT22;40226;50.874;4.394;2023-11-22T08:43:10;6.90;99.90
23597;DHT22;40226;50.874;4.394;2023-11-22T08:45:35;7.00;99.90
23597;DHT22;40226;50.874;4.394;2023-11-22T08:48:01;7.10;99.90
23597;DHT22;40226;50.874;4.394;2023-11-22T08:50:27;7.40;99.90
23597;DHT22;40226;50.874;4.394;2023-11-22T08:52:52;7.50;99.90
23597;DHT22;40226;50.874;4.394;2023-11-22T08:55:19;7.80;99.90
23597;DHT22;40226;50.874;4.394;2023-11-22T08:57:49;8.00;99.90
23597;DHT22;40226;50.874;4.394;2023-11-22T09:00:18;7.80;99.90
23597;DHT22;40226;50.874;4.394;2023-11-22T09:02:48;7.60;99.90
23597;DHT22;40226;50.874;4.394;2023-11-22T09:05:14;7.80;99.90
23597;DHT22;40226;50.874;4.394;2023-11-22T09:07:42;7.70;99.90
23597;DHT22;40226;50.874;4.394;2023-11-22T09:10:10;7.80;99.90
23597;DHT22;40226;50.874;4.394;2023-11-22T09:12:40;7.80;99.90
23597;DHT22;40226;50.874;4.394;2023-11-22T09:15:15;8.00;99.90
23597;DHT22;40226;50.874;4.394;2023-11-22T09:17:49;7.90;99.90
23597;DHT22;40226;50.874;4.394;2023-11-22T09:20:16;8.10;99.90
23597;DHT22;40226;50.874;4.394;2023-11-22T09:22:47;8.30;99.90
23597;DHT22;40226;50.874;4.394;2023-11-22T09:25:19;8.00;99.90
23597;DHT22;40226;50.874;4.394;2023-11-22T09:27:46;7.90;99.90
23597;DHT22;40226;50.874;4.394;2023-11-22T09:30:13;7.90;99.90
23597;DHT22;40226;50.874;4.394;2023-11-22T09:32:45;8.10;99.90
23597;DHT22;40226;50.874;4.394;2023-11-22T09:35:14;8.50;99.90
23597;DHT22;40226;50.874;4.394;2023-11-22T09:37:41;8.50;99.90
23597;DHT22;40226;50.874;4.394;2023-11-22T09:40:10;8.70;99.90
23597;DHT22;40226;50.874;4.394;2023-11-22T09:42:37;8.60;99.90
23597;DHT22;40226;50.874;4.394;2023-11-22T09:45:03;8.60;99.90
23597;DHT22;40226;50.874;4.394;2023-11-22T09:47:32;8.70;99.90
23597;DHT22;40226;50.874;4.394;2023-11-22T09:50:01;8.60;99.90
23597;DHT22;40226;50.874;4.394;2023-11-22T09:52:28;8.60;99.90
23597;DHT22;40226;50.874;4.394;2023-11-22T09:54:56;8.60;99.90
23597;DHT22;40226;50.874;4.394;2023-11-22T09:57:22;9.00;99.90
23597;DHT22;40226;50.874;4.394;2023-11-22T09:59:49;9.10;99.90
23597;DHT22;40226;50.874;4.394;2023-11-22T10:02:17;9.30;99.90
23597;DHT22;40226;50.874;4.394;2023-11-22T10:04:42;9.50;99.90
23597;DHT22;40226;50.874;4.394;2023-11-22T10:07:09;9.50;99.90
23597;DHT22;40226;50.874;4.394;2023-11-22T10:09:35;9.10;99.90
23597;DHT22;40226;50.874;4.394;2023-11-22T10:12:03;9.10;99.90
23597;DHT22;40226;50.874;4.394;2023-11-22T10:14:30;9.10;99.90
23597;DHT22;40226;50.874;4.394;2023-11-22T10:17:02;8.50;99.90
23597;DHT22;40226;50.874;4.394;2023-11-22T10:19:30;8.70;99.90
23597;DHT22;40226;50.874;4.394;2023-11-22T10:22:09;8.40;99.90
23597;DHT22;40226;50.874;4.394;2023-11-22T10:24:35;8.40;99.90
23597;DHT22;40226;50.874;4.394;2023-11-22T10:27:02;8.50;99.90
23597;DHT22;40226;50.874;4.394;2023-11-22T10:29:28;8.90;99.90
23597;DHT22;40226;50.874;4.394;2023-11-22T10:31:54;8.90;99.90
23597;DHT22;40226;50.874;4.394;2023-11-22T10:34:21;9.10;99.90
23597;DHT22;40226;50.874;4.394;2023-11-22T10:36:48;9.20;99.90
23597;DHT22;40226;50.874;4.394;2023-11-22T10:39:19;9.10;99.90
23597;DHT22;40226;50.874;4.394;2023-11-22T10:41:46;9.30;99.90
23597;DHT22;40226;50.874;4.394;2023-11-22T10:44:11;9.70;99.90
23597;DHT22;40226;50.874;4.394;2023-11-22T10:46:39;9.70;99.90
23597;DHT22;40226;50.874;4.394;2023-11-22T10:49:05;9.70;99.90
23597;DHT22;40226;50.874;4.394;2023-11-22T10:51:32;9.40;99.90
23597;DHT22;40226;50.874;4.394;2023-11-22T10:53:59;9.60;99.90
23597;DHT22;40226;50.874;4.394;2023-11-22T10:56:41;9.40;99.90
23597;DHT22;40226;50.874;4.394;2023-11-22T10:59:15;9.60;99.90
23597;DHT22;40226;50.874;4.394;2023-11-22T11:01:45;10.00;99.90
23597;DHT22;40226;50.874;4.394;2023-11-22T11:04:24;10.30;99.90
23597;DHT22;40226;50.874;4.394;2023-11-22T11:06:54;9.70;99.90
23597;DHT22;40226;50.874;4.394;2023-11-22T11:09:23;9.00;99.90
23597;DHT22;40226;50.874;4.394;2023-11-22T11:12:00;9.20;99.90
23597;DHT22;40226;50.874;4.394;2023-11-22T11:14:28;9.20;99.90
23597;DHT22;40226;50.874;4.394;2023-11-22T11:16:54;9.10;99.90
23597;DHT22;40226;50.874;4.394;2023-11-22T11:19:24;9.30;99.90
23597;DHT22;40226;50.874;4.394;2023-11-22T11:21:50;9.80;99.90
23597;DHT22;40226;50.874;4.394;2023-11-22T11:24:17;10.00;99.90
23597;DHT22;40226;50.874;4.394;2023-11-22T11:26:48;10.00;99.90
23597;DHT22;40226;50.874;4.394;2023-11-22T11:29:30;9.50;99.90
23597;DHT22;40226;50.874;4.394;2023-11-22T11:31:56;9.90;99.90
23597;DHT22;40226;50.874;4.394;2023-11-22T11:34:23;10.20;99.90
23597;DHT22;40226;50.874;4.394;2023-11-22T11:36:53;10.40;99.90
23597;DHT22;40226;50.874;4.394;2023-11-22T11:39:26;10.40;99.90
23597;DHT22;40226;50.874;4.394;2023-11-22T11:42:08;10.30;99.90
23597;DHT22;40226;50.874;4.394;2023-11-22T11:44:34;10.50;99.90
23597;DHT22;40226;50.874;4.394;2023-11-22T11:47:09;10.80;99.90
23597;DHT22;40226;50.874;4.394;2023-11-22T11:49:37;11.10;99.90
23597;DHT22;40226;50.874;4.394;2023-11-22T11:52:04;11.60;99.90
23597;DHT22;40226;50.874;4.394;2023-11-22T11:54:30;11.60;99.90
23597;DHT22;40226;50.874;4.394;2023-11-22T11:56:59;11.30;99.90
23597;DHT22;40226;50.874;4.394;2023-11-22T11:59:25;11.30;99.90
23597;DHT22;40226;50.874;4.394;2023-11-22T12:01:55;11.70;99.90
23597;DHT22;40226;50.874;4.394;2023-11-22T12:04:23;12.30;99.90
23597;DHT22;40226;50.874;4.394;2023-11-22T12:06:49;12.70;99.90
23597;DHT22;40226;50.874;4.394;2023-11-22T12:09:22;12.40;99.90
23597;DHT22;40226;50.874;4.394;2023-11-22T12:11:49;12.70;99.90
23597;DHT22;40226;50.874;4.394;2023-11-22T12:14:15;12.00;99.90
23597;DHT22;40226;50.874;4.394;2023-11-22T12:16:41;12.30;99.90
23597;DHT22;40226;50.874;4.394;2023-11-22T12:19:09;12.50;99.90
23597;DHT22;40226;50.874;4.394;2023-11-22T12:21:37;12.10;99.90
23597;DHT22;40226;50.874;4.394;2023-11-22T12:24:02;11.80;99.90
23597;DHT22;40226;50.874;4.394;2023-11-22T12:26:31;11.40;99.90
23597;DHT22;40226;50.874;4.394;2023-11-22T12:28:59;11.80;99.90
23597;DHT22;40226;50.874;4.394;2023-11-22T12:31:27;11.90;99.90
23597;DHT22;40226;50.874;4.394;2023-11-22T12:33:56;11.30;99.90
23597;DHT22;40226;50.874;4.394;2023-11-22T12:36:23;10.90;99.90
23597;DHT22;40226;50.874;4.394;2023-11-22T12:38:49;10.80;99.90
23597;DHT22;40226;50.874;4.394;2023-11-22T12:41:15;10.80;99.90
23597;DHT22;40226;50.874;4.394;2023-11-22T12:43:40;10.90;99.90
23597;DHT22;40226;50.874;4.394;2023-11-22T12:46:07;10.80;1.00
23597;DHT22;40226;50.874;4.394;2023-11-22T12:48:33;10.40;1.00
23597;DHT22;40226;50.874;4.394;2023-11-22T12:50:59;10.30;1.00
23597;DHT22;40226;50.874;4.394;2023-11-22T12:53:26;10.30;1.00
23597;DHT22;40226;50.874;4.394;2023-11-22T12:55:54;10.50;1.00
23597;DHT22;40226;50.874;4.394;2023-11-22T12:58:22;10.30;1.00
23597;DHT22;40226;50.874;4.394;2023-11-22T13:00:49;10.40;1.00
23597;DHT22;40226;50.874;4.394;2023-11-22T13:03:15;10.40;1.00
23597;DHT22;40226;50.874;4.394;2023-11-22T13:05:43;10.20;1.00
23597;DHT22;40226;50.874;4.394;2023-11-22T13:08:12;9.60;1.00
23597;DHT22;40226;50.874;4.394;2023-11-22T13:10:45;9.40;1.00
23597;DHT22;40226;50.874;4.394;2023-11-22T13:13:30;9.10;1.00
23597;DHT22;40226;50.874;4.394;2023-11-22T13:15:56;8.90;1.00
23597;DHT22;40226;50.874;4.394;2023-11-22T13:18:22;9.00;1.00
23597;DHT22;40226;50.874;4.394;2023-11-22T13:20:48;9.00;1.00
23597;DHT22;40226;50.874;4.394;2023-11-22T13:23:15;8.90;1.00
23597;DHT22;40226;50.874;4.394;2023-11-22T13:25:41;9.00;1.00
23597;DHT22;40226;50.874;4.394;2023-11-22T13:28:07;8.80;1.00
23597;DHT22;40226;50.874;4.394;2023-11-22T13:30:34;8.70;1.00
23597;DHT22;40226;50.874;4.394;2023-11-22T13:32:59;8.70;32.10
23597;DHT22;40226;50.874;4.394;2023-11-22T13:35:26;9.00;14.90
23597;DHT22;40226;50.874;4.394;2023-11-22T13:38:02;9.40;99.90
23597;DHT22;40226;50.874;4.394;2023-11-22T13:40:29;9.60;99.90
23597;DHT22;40226;50.874;4.394;2023-11-22T13:42:59;9.70;99.90
23597;DHT22;40226;50.874;4.394;2023-11-22T13:45:24;9.50;99.90
23597;DHT22;40226;50.874;4.394;2023-11-22T13:47:52;9.70;99.90
23597;DHT22;40226;50.874;4.394;2023-11-22T13:50:22;9.90;99.90
23597;DHT22;40226;50.874;4.394;2023-11-22T13:52:49;9.40;99.90
23597;DHT22;40226;50.874;4.394;2023-11-22T13:55:15;9.20;99.90
23597;DHT22;40226;50.874;4.394;2023-11-22T13:57:47;9.20;99.90
23597;DHT22;40226;50.874;4.394;2023-11-22T14:00:14;9.00;1.00
23597;DHT22;40226;50.874;4.394;2023-11-22T14:02:48;8.80;1.00
23597;DHT22;40226;50.874;4.394;2023-11-22T14:05:14;8.70;25.10
23597;DHT22;40226;50.874;4.394;2023-11-22T14:07:41;8.60;49.70
23597;DHT22;40226;50.874;4.394;2023-11-22T14:10:07;8.40;66.40
23597;DHT22;40226;50.874;4.394;2023-11-22T14:12:34;8.40;84.60
23597;DHT22;40226;50.874;4.394;2023-11-22T14:15:00;8.50;91.00
23597;DHT22;40226;50.874;4.394;2023-11-22T14:17:26;8.50;93.00
23597;DHT22;40226;50.874;4.394;2023-11-22T14:19:55;8.50;91.50
23597;DHT22;40226;50.874;4.394;2023-11-22T14:22:22;8.50;95.60
23597;DHT22;40226;50.874;4.394;2023-11-22T14:24:49;8.70;89.60
23597;DHT22;40226;50.874;4.394;2023-11-22T14:27:15;8.90;88.60
23597;DHT22;40226;50.874;4.394;2023-11-22T14:29:41;9.10;52.60
23597;DHT22;40226;50.874;4.394;2023-11-22T14:32:07;9.50;99.90
23597;DHT22;40226;50.874;4.394;2023-11-22T14:34:33;9.40;99.90
23597;DHT22;40226;50.874;4.394;2023-11-22T14:37:00;9.60;99.90
23597;DHT22;40226;50.874;4.394;2023-11-22T14:39:26;9.80;99.90
23597;DHT22;40226;50.874;4.394;2023-11-22T14:41:52;9.70;99.90
23597;DHT22;40226;50.874;4.394;2023-11-22T14:44:21;9.40;99.90
23597;DHT22;40226;50.874;4.394;2023-11-22T14:46:46;9.20;24.60
23597;DHT22;40226;50.874;4.394;2023-11-22T14:49:13;9.20;99.90
23597;DHT22;40226;50.874;4.394;2023-11-22T14:51:39;9.10;99.90
23597;DHT22;40226;50.874;4.394;2023-11-22T14:54:05;8.90;99.90
23597;DHT22;40226;50.874;4.394;2023-11-22T14:56:31;8.80;58.30
23597;DHT22;40226;50.874;4.394;2023-11-22T14:58:57;8.80;56.80
23597;DHT22;40226;50.874;4.394;2023-11-22T15:01:22;8.70;74.90
23597;DHT22;40226;50.874;4.394;2023-11-22T15:03:52;8.40;92.50
23597;DHT22;40226;50.874;4.394;2023-11-22T15:06:19;8.30;99.90
23597;DHT22;40226;50.874;4.394;2023-11-22T15:08:45;8.30;99.90
23597;DHT22;40226;50.874;4.394;2023-11-22T15:11:11;8.30;99.90
23597;DHT22;40226;50.874;4.394;2023-11-22T15:13:37;8.20;99.90
23597;DHT22;40226;50.874;4.394;2023-11-22T15:16:03;8.20;99.90
23597;DHT22;40226;50.874;4.394;2023-11-22T15:18:28;8.10;99.90
23597;DHT22;40226;50.874;4.394;2023-11-22T15:20:56;8.10;99.90
23597;DHT22;40226;50.874;4.394;2023-11-22T15:23:21;8.20;99.90
23597;DHT22;40226;50.874;4.394;2023-11-22T15:25:47;8.30;99.90
23597;DHT22;40226;50.874;4.394;2023-11-22T15:28:13;8.20;99.90
23597;DHT22;40226;50.874;4.394;2023-11-22T15:30:47;8.20;99.90
23597;DHT22;40226;50.874;4.394;2023-11-22T15:33:14;8.20;99.90
23597;DHT22;40226;50.874;4.394;2023-11-22T15:35:40;8.20;99.90
23597;DHT22;40226;50.874;4.394;2023-11-22T15:38:06;8.10;99.90
23597;DHT22;40226;50.874;4.394;2023-11-22T15:40:32;8.10;99.90
23597;DHT22;40226;50.874;4.394;2023-11-22T15:42:57;8.10;99.90